sensor_id;sensor_type;location;lat;lon;timestamp;noise_LAeq;noise_LA_min;noise_LA_max;noise_LA01;noise_LA95
66454;Laerm;75808;51.436;5.978;2024-01-27T00:00:06;37.84;35.55;42.79;;
66454;Laerm;75808;51.436;5.978;2024-01-27T00:00:16;41.20;34.90;51.57;;
66454;Laerm;75808;51.436;5.978;2024-01-27T00:00:26;46.07;35.66;58.18;;
66454;Laerm;75808;51.436;5.978;2024-01-27T00:00:37;37.19;34.23;42.77;;
66454;Laerm;75808;51.436;5.978;2024-01-27T00:00:47;40.29;36.31;43.72;;
66454;Laerm;75808;51.436;5.978;2024-01-27T00:00:57;35.36;33.12;37.69;;
66454;Laerm;75808;51.436;5.978;2024-01-27T00:01:07;34.97;33.48;36.60;;
66454;Laerm;75808;51.436;5.978;2024-01-27T00:01:17;34.80;32.62;36.86;;
66454;Laerm;75808;51.436;5.978;2024-01-27T00:01:28;34.29;32.88;38.05;;
66454;Laerm;75808;51.436;5.978;2024-01-27T00:01:38;34.25;32.57;35.74;;
66454;Laerm;75808;51.436;5.978;2024-01-27T00:01:48;34.97;33.23;37.30;;
66454;Laerm;75808;51.436;5.978;2024-01-27T00:01:58;35.75;33.90;37.42;;
66454;Laerm;75808;51.436;5.978;2024-01-27T00:02:09;36.34;34.69;38.27;;
66454;Laerm;75808;51.436;5.978;2024-01-27T00:02:19;37.52;34.68;39.50;;
66454;Laerm;75808;51.436;5.978;2024-01-27T00:02:29;37.36;35.11;39.20;;
66454;Laerm;75808;51.436;5.978;2024-01-27T00:02:39;37.01;33.97;40.57;;
66454;Laerm;75808;51.436;5.978;2024-01-27T00:02:49;43.77;37.25;48.03;;
66454;Laerm;75808;51.436;5.978;2024-01-27T00:03:00;46.32;41.59;52.38;;
66454;Laerm;75808;51.436;5.978;2024-01-27T00:03:10;43.30;38.75;48.25;;
66454;Laerm;75808;51.436;5.978;2024-01-27T00:03:20;39.84;35.77;42.83;;
66454;Laerm;75808;51.436;5.978;2024-01-27T00:03:31;37.58;35.54;40.13;;
66454;Laerm;75808;51.436;5.978;2024-01-27T00:03:41;37.02;34.92;39.44;;
66454;Laerm;75808;51.436;5.978;2024-01-27T00:03:51;37.11;34.64;39.61;;
66454;Laerm;75808;51.436;5.978;2024-01-27T00:04:04;37.64;35.58;41.00;;
66454;Laerm;75808;51.436;5.978;2024-01-27T00:04:14;37.13;34.30;39.11;;
66454;Laerm;75808;51.436;5.978;2024-01-27T00:04:24;35.77;34.05;37.35;;
66454;Laerm;75808;51.436;5.978;2024-01-27T00:04:37;35.15;32.90;37.07;;
66454;Laerm;75808;51.436;5.978;2024-01-27T00:04:47;34.80;32.72;38.14;;
66454;Laerm;75808;51.436;5.978;2024-01-27T00:04:58;43.77;35.38;50.47;;
66454;Laerm;75808;51.436;5.978;2024-01-27T00:05:08;42.35;35.40;47.60;;
66454;Laerm;75808;51.436;5.978;2024-01-27T00:05:19;34.85;32.67;37.99;;
66454;Laerm;75808;51.436;5.978;2024-01-27T00:05:29;36.60;33.45;40.93;;
66454;Laerm;75808;51.436;5.978;2024-01-27T00:05:39;37.50;34.78;40.40;;
66454;Laerm;75808;51.436;5.978;2024-01-27T00:05:49;34.58;33.14;36.19;;
66454;Laerm;75808;51.436;5.978;2024-01-27T00:05:59;34.10;32.40;38.40;;
66454;Laerm;75808;51.436;5.978;2024-01-27T00:06:10;33.54;31.79;35.40;;
66454;Laerm;75808;51.436;5.978;2024-01-27T00:06:20;33.31;31.97;37.19;;
66454;Laerm;75808;51.436;5.978;2024-01-27T00:06:30;33.51;31.84;38.46;;
66454;Laerm;75808;51.436;5.978;2024-01-27T00:06:40;33.06;31.49;35.16;;
66454;Laerm;75808;51.436;5.978;2024-01-27T00:06:50;32.99;31.65;34.37;;
66454;Laerm;75808;51.436;5.978;2024-01-27T00:07:01;35.54;31.95;40.23;;
66454;Laerm;75808;51.436;5.978;2024-01-27T00:07:11;46.16;38.78;49.98;;
66454;Laerm;75808;51.436;5.978;2024-01-27T00:07:21;44.60;38.23;48.59;;
66454;Laerm;75808;51.436;5.978;2024-01-27T00:07:32;41.07;36.68;51.00;;
66454;Laerm;75808;51.436;5.978;2024-01-27T00:07:42;37.64;34.32;41.85;;
66454;Laerm;75808;51.436;5.978;2024-01-27T00:07:52;36.44;33.89;39.45;;
66454;Laerm;75808;51.436;5.978;2024-01-27T00:08:02;39.42;33.96;45.57;;
66454;Laerm;75808;51.436;5.978;2024-01-27T00:08:13;35.92;32.97;42.16;;
66454;Laerm;75808;51.436;5.978;2024-01-27T00:08:23;38.68;33.43;47.55;;
66454;Laerm;75808;51.436;5.978;2024-01-27T00:08:33;37.35;33.93;42.97;;
66454;Laerm;75808;51.436;5.978;2024-01-27T00:08:43;36.91;33.27;42.51;;
66454;Laerm;75808;51.436;5.978;2024-01-27T00:08:53;34.61;32.84;36.17;;
66454;Laerm;75808;51.436;5.978;2024-01-27T00:09:04;34.52;32.60;37.61;;
66454;Laerm;75808;51.436;5.978;2024-01-27T00:09:15;34.57;32.72;37.18;;
66454;Laerm;75808;51.436;5.978;2024-01-27T00:09:26;35.15;33.15;37.56;;
66454;Laerm;75808;51.436;5.978;2024-01-27T00:09:36;35.51;33.57;41.02;;
66454;Laerm;75808;51.436;5.978;2024-01-27T00:09:46;34.39;32.52;36.57;;
66454;Laerm;75808;51.436;5.978;2024-01-27T00:09:57;33.59;32.17;34.76;;
66454;Laerm;75808;51.436;5.978;2024-01-27T00:10:09;33.42;32.07;35.22;;
66454;Laerm;75808;51.436;5.978;2024-01-27T00:10:19;32.92;31.57;35.60;;
66454;Laerm;75808;51.436;5.978;2024-01-27T00:10:29;33.17;31.77;35.09;;
66454;Laerm;75808;51.436;5.978;2024-01-27T00:10:39;33.34;32.09;34.70;;
66454;Laerm;75808;51.436;5.978;2024-01-27T00:10:50;33.29;31.72;36.03;;
66454;Laerm;75808;51.436;5.978;2024-01-27T00:11:00;33.58;32.10;35.57;;
66454;Laerm;75808;51.436;5.978;2024-01-27T00:11:11;35.55;33.31;39.61;;
66454;Laerm;75808;51.436;5.978;2024-01-27T00:11:21;44.18;37.90;48.62;;
66454;Laerm;75808;51.436;5.978;2024-01-27T00:11:34;47.02;40.24;56.20;;
66454;Laerm;75808;51.436;5.978;2024-01-27T00:11:44;41.09;36.59;44.35;;
66454;Laerm;75808;51.436;5.978;2024-01-27T00:11:55;38.77;35.02;44.95;;
66454;Laerm;75808;51.436;5.978;2024-01-27T00:12:05;43.56;35.71;48.96;;
66454;Laerm;75808;51.436;5.978;2024-01-27T00:12:16;47.96;42.58;52.01;;
66454;Laerm;75808;51.436;5.978;2024-01-27T00:12:26;42.16;38.42;44.74;;
66454;Laerm;75808;51.436;5.978;2024-01-27T00:12:36;37.55;35.01;42.91;;
66454;Laerm;75808;51.436;5.978;2024-01-27T00:12:46;36.78;34.25;40.93;;
66454;Laerm;75808;51.436;5.978;2024-01-27T00:12:57;35.72;33.72;39.56;;
66454;Laerm;75808;51.436;5.978;2024-01-27T00:13:07;35.97;33.70;40.16;;
66454;Laerm;75808;51.436;5.978;2024-01-27T00:13:18;36.68;33.48;41.76;;
66454;Laerm;75808;51.436;5.978;2024-01-27T00:13:28;35.09;32.44;39.24;;
66454;Laerm;75808;51.436;5.978;2024-01-27T00:13:38;34.17;31.98;37.76;;
66454;Laerm;75808;51.436;5.978;2024-01-27T00:13:48;33.83;32.02;36.71;;
66454;Laerm;75808;51.436;5.978;2024-01-27T00:13:58;34.30;32.53;36.51;;
66454;Laerm;75808;51.436;5.978;2024-01-27T00:14:13;33.61;32.07;36.89;;
66454;Laerm;75808;51.436;5.978;2024-01-27T00:14:23;33.63;31.59;38.28;;
66454;Laerm;75808;51.436;5.978;2024-01-27T00:14:33;32.80;31.23;35.46;;
66454;Laerm;75808;51.436;5.978;2024-01-27T00:14:44;33.23;31.84;35.50;;
66454;Laerm;75808;51.436;5.978;2024-01-27T00:14:54;32.70;31.39;35.12;;
66454;Laerm;75808;51.436;5.978;2024-01-27T00:15:06;32.62;31.20;35.07;;
66454;Laerm;75808;51.436;5.978;2024-01-27T00:15:16;33.43;31.81;34.93;;
66454;Laerm;75808;51.436;5.978;2024-01-27T00:15:27;33.49;32.07;34.84;;
66454;Laerm;75808;51.436;5.978;2024-01-27T00:15:37;33.32;31.90;35.33;;
66454;Laerm;75808;51.436;5.978;2024-01-27T00:15:47;34.16;32.24;36.02;;
66454;Laerm;75808;51.436;5.978;2024-01-27T00:15:57;33.24;32.01;34.71;;
66454;Laerm;75808;51.436;5.978;2024-01-27T00:16:08;34.48;32.22;37.85;;
66454;Laerm;75808;51.436;5.978;2024-01-27T00:16:19;35.75;32.79;39.81;;
66454;Laerm;75808;51.436;5.978;2024-01-27T00:16:29;35.58;33.35;40.00;;
66454;Laerm;75808;51.436;5.978;2024-01-27T00:16:39;34.85;33.11;36.45;;
66454;Laerm;75808;51.436;5.978;2024-01-27T00:16:49;42.75;34.24;49.23;;
66454;Laerm;75808;51.436;5.978;2024-01-27T00:16:59;46.44;39.83;51.85;;
66454;Laerm;75808;51.436;5.978;2024-01-27T00:17:10;41.46;38.50;45.29;;
66454;Laerm;75808;51.436;5.978;2024-01-27T00:17:20;35.64;33.29;39.15;;
66454;Laerm;75808;51.436;5.978;2024-01-27T00:17:35;35.74;33.02;43.43;;
66454;Laerm;75808;51.436;5.978;2024-01-27T00:17:45;35.57;32.24;49.84;;
66454;Laerm;75808;51.436;5.978;2024-01-27T00:17:56;33.72;31.90;44.27;;
66454;Laerm;75808;51.436;5.978;2024-01-27T00:18:06;34.20;32.24;37.66;;
66454;Laerm;75808;51.436;5.978;2024-01-27T00:18:16;35.59;33.41;38.09;;
66454;Laerm;75808;51.436;5.978;2024-01-27T00:18:27;33.97;32.21;35.92;;
66454;Laerm;75808;51.436;5.978;2024-01-27T00:18:37;34.79;33.13;37.65;;
66454;Laerm;75808;51.436;5.978;2024-01-27T00:18:47;33.96;32.69;36.17;;
66454;Laerm;75808;51.436;5.978;2024-01-27T00:18:58;34.11;32.41;36.12;;
66454;Laerm;75808;51.436;5.978;2024-01-27T00:19:08;34.30;32.45;37.30;;
66454;Laerm;75808;51.436;5.978;2024-01-27T00:19:18;38.88;34.01;43.80;;
66454;Laerm;75808;51.436;5.978;2024-01-27T00:19:28;38.25;34.08;43.20;;
66454;Laerm;75808;51.436;5.978;2024-01-27T00:19:38;35.47;32.80;39.22;;
66454;Laerm;75808;51.436;5.978;2024-01-27T00:19:49;35.34;33.14;39.24;;
66454;Laerm;75808;51.436;5.978;2024-01-27T00:19:59;37.90;34.30;42.12;;
66454;Laerm;75808;51.436;5.978;2024-01-27T00:20:09;38.51;33.65;44.01;;
66454;Laerm;75808;51.436;5.978;2024-01-27T00:20:20;46.13;34.10;57.41;;
66454;Laerm;75808;51.436;5.978;2024-01-27T00:20:30;34.51;32.62;36.85;;
66454;Laerm;75808;51.436;5.978;2024-01-27T00:20:40;33.92;32.44;35.20;;
66454;Laerm;75808;51.436;5.978;2024-01-27T00:20:50;33.71;32.33;34.95;;
66454;Laerm;75808;51.436;5.978;2024-01-27T00:21:00;33.67;31.87;35.26;;
66454;Laerm;75808;51.436;5.978;2024-01-27T00:21:10;33.41;31.68;35.18;;
66454;Laerm;75808;51.436;5.978;2024-01-27T00:21:21;33.24;31.53;34.47;;
66454;Laerm;75808;51.436;5.978;2024-01-27T00:21:31;32.93;31.66;34.24;;
66454;Laerm;75808;51.436;5.978;2024-01-27T00:21:41;32.79;31.38;34.36;;
66454;Laerm;75808;51.436;5.978;2024-01-27T00:21:51;33.57;31.97;37.38;;
66454;Laerm;75808;51.436;5.978;2024-01-27T00:22:02;33.91;31.82;39.38;;
66454;Laerm;75808;51.436;5.978;2024-01-27T00:22:12;34.06;32.00;38.67;;
66454;Laerm;75808;51.436;5.978;2024-01-27T00:22:22;35.30;32.76;39.46;;
66454;Laerm;75808;51.436;5.978;2024-01-27T00:22:32;34.82;32.43;37.56;;
66454;Laerm;75808;51.436;5.978;2024-01-27T00:22:43;33.74;31.98;37.24;;
66454;Laerm;75808;51.436;5.978;2024-01-27T00:22:53;39.47;33.40;51.25;;
66454;Laerm;75808;51.436;5.978;2024-01-27T00:23:03;46.47;32.98;55.25;;
66454;Laerm;75808;51.436;5.978;2024-01-27T00:23:14;36.13;33.02;40.08;;
66454;Laerm;75808;51.436;5.978;2024-01-27T00:23:24;40.04;34.73;43.65;;
66454;Laerm;75808;51.436;5.978;2024-01-27T00:23:34;35.99;33.03;41.14;;
66454;Laerm;75808;51.436;5.978;2024-01-27T00:23:44;34.45;31.85;41.74;;
66454;Laerm;75808;51.436;5.978;2024-01-27T00:23:55;35.28;32.19;43.26;;
66454;Laerm;75808;51.436;5.978;2024-01-27T00:24:10;35.90;32.16;44.35;;
66454;Laerm;75808;51.436;5.978;2024-01-27T00:24:20;35.90;31.97;43.50;;
66454;Laerm;75808;51.436;5.978;2024-01-27T00:24:31;35.61;32.38;43.08;;
66454;Laerm;75808;51.436;5.978;2024-01-27T00:24:41;34.58;31.42;40.66;;
66454;Laerm;75808;51.436;5.978;2024-01-27T00:24:51;34.30;31.61;40.75;;
66454;Laerm;75808;51.436;5.978;2024-01-27T00:25:02;34.12;31.65;39.70;;
66454;Laerm;75808;51.436;5.978;2024-01-27T00:25:12;33.72;31.26;39.40;;
66454;Laerm;75808;51.436;5.978;2024-01-27T00:25:22;34.15;30.90;43.18;;
66454;Laerm;75808;51.436;5.978;2024-01-27T00:25:33;34.64;31.78;41.66;;
66454;Laerm;75808;51.436;5.978;2024-01-27T00:25:43;34.60;32.01;39.37;;
66454;Laerm;75808;51.436;5.978;2024-01-27T00:25:53;40.82;34.02;46.79;;
66454;Laerm;75808;51.436;5.978;2024-01-27T00:26:04;39.19;33.08;45.17;;
66454;Laerm;75808;51.436;5.978;2024-01-27T00:26:14;35.16;32.37;43.65;;
66454;Laerm;75808;51.436;5.978;2024-01-27T00:26:24;34.60;32.14;40.20;;
66454;Laerm;75808;51.436;5.978;2024-01-27T00:26:34;34.75;32.46;40.29;;
66454;Laerm;75808;51.436;5.978;2024-01-27T00:26:45;34.19;31.32;37.43;;
66454;Laerm;75808;51.436;5.978;2024-01-27T00:26:55;33.12;31.25;38.53;;
66454;Laerm;75808;51.436;5.978;2024-01-27T00:27:05;33.58;31.69;37.65;;
66454;Laerm;75808;51.436;5.978;2024-01-27T00:27:15;34.96;32.61;40.77;;
66454;Laerm;75808;51.436;5.978;2024-01-27T00:27:26;34.60;32.10;41.22;;
66454;Laerm;75808;51.436;5.978;2024-01-27T00:27:36;34.36;32.66;36.22;;
66454;Laerm;75808;51.436;5.978;2024-01-27T00:27:46;34.95;33.05;38.21;;
66454;Laerm;75808;51.436;5.978;2024-01-27T00:27:56;36.60;32.52;41.22;;
66454;Laerm;75808;51.436;5.978;2024-01-27T00:28:07;42.06;35.18;48.32;;
66454;Laerm;75808;51.436;5.978;2024-01-27T00:28:17;47.68;44.38;51.42;;
66454;Laerm;75808;51.436;5.978;2024-01-27T00:28:27;44.81;42.11;46.82;;
66454;Laerm;75808;51.436;5.978;2024-01-27T00:28:37;43.82;41.56;46.01;;
66454;Laerm;75808;51.436;5.978;2024-01-27T00:28:48;45.35;41.97;48.09;;
66454;Laerm;75808;51.436;5.978;2024-01-27T00:28:58;70.17;46.39;79.35;;
66454;Laerm;75808;51.436;5.978;2024-01-27T00:29:08;72.97;69.24;80.56;;
66454;Laerm;75808;51.436;5.978;2024-01-27T00:29:18;72.24;69.27;75.30;;
66454;Laerm;75808;51.436;5.978;2024-01-27T00:29:28;62.46;40.68;73.24;;
66454;Laerm;75808;51.436;5.978;2024-01-27T00:29:39;39.41;34.84;47.42;;
66454;Laerm;75808;51.436;5.978;2024-01-27T00:29:49;35.83;33.76;38.68;;
66454;Laerm;75808;51.436;5.978;2024-01-27T00:29:59;35.58;34.17;37.29;;
66454;Laerm;75808;51.436;5.978;2024-01-27T00:30:09;36.28;34.48;37.56;;
66454;Laerm;75808;51.436;5.978;2024-01-27T00:30:21;35.42;31.65;37.65;;
66454;Laerm;75808;51.436;5.978;2024-01-27T00:30:31;33.01;31.63;34.93;;
66454;Laerm;75808;51.436;5.978;2024-01-27T00:30:42;32.40;30.64;33.92;;
66454;Laerm;75808;51.436;5.978;2024-01-27T00:30:52;32.65;30.86;33.96;;
66454;Laerm;75808;51.436;5.978;2024-01-27T00:31:02;32.60;31.24;34.20;;
66454;Laerm;75808;51.436;5.978;2024-01-27T00:31:12;32.42;31.26;33.78;;
66454;Laerm;75808;51.436;5.978;2024-01-27T00:31:22;32.36;30.83;34.01;;
66454;Laerm;75808;51.436;5.978;2024-01-27T00:31:32;32.56;30.78;34.55;;
66454;Laerm;75808;51.436;5.978;2024-01-27T00:31:43;32.41;30.54;37.52;;
66454;Laerm;75808;51.436;5.978;2024-01-27T00:31:53;32.08;30.52;33.78;;
66454;Laerm;75808;51.436;5.978;2024-01-27T00:32:04;33.51;30.86;40.76;;
66454;Laerm;75808;51.436;5.978;2024-01-27T00:32:15;33.76;32.11;35.08;;
66454;Laerm;75808;51.436;5.978;2024-01-27T00:32:25;35.45;33.14;40.92;;
66454;Laerm;75808;51.436;5.978;2024-01-27T00:32:35;38.39;32.41;43.72;;
66454;Laerm;75808;51.436;5.978;2024-01-27T00:32:45;33.79;31.76;36.72;;
66454;Laerm;75808;51.436;5.978;2024-01-27T00:32:56;34.63;32.51;36.87;;
66454;Laerm;75808;51.436;5.978;2024-01-27T00:33:06;33.49;31.98;36.61;;
66454;Laerm;75808;51.436;5.978;2024-01-27T00:33:16;33.43;31.80;36.37;;
66454;Laerm;75808;51.436;5.978;2024-01-27T00:33:26;33.97;32.27;36.56;;
66454;Laerm;75808;51.436;5.978;2024-01-27T00:33:36;34.03;32.23;36.61;;
66454;Laerm;75808;51.436;5.978;2024-01-27T00:33:47;34.07;31.86;38.18;;
66454;Laerm;75808;51.436;5.978;2024-01-27T00:33:57;33.50;31.88;35.64;;
66454;Laerm;75808;51.436;5.978;2024-01-27T00:34:07;35.14;31.57;41.68;;
66454;Laerm;75808;51.436;5.978;2024-01-27T00:34:17;35.79;32.42;41.63;;
66454;Laerm;75808;51.436;5.978;2024-01-27T00:34:28;34.47;32.59;38.34;;
66454;Laerm;75808;51.436;5.978;2024-01-27T00:34:38;35.34;32.94;37.91;;
66454;Laerm;75808;51.436;5.978;2024-01-27T00:34:48;34.91;32.50;39.89;;
66454;Laerm;75808;51.436;5.978;2024-01-27T00:34:58;34.99;32.78;42.07;;
66454;Laerm;75808;51.436;5.978;2024-01-27T00:35:08;34.48;32.16;38.38;;
66454;Laerm;75808;51.436;5.978;2024-01-27T00:35:21;35.43;32.92;39.29;;
66454;Laerm;75808;51.436;5.978;2024-01-27T00:35:31;36.43;32.28;44.47;;
66454;Laerm;75808;51.436;5.978;2024-01-27T00:35:42;34.95;33.18;37.97;;
66454;Laerm;75808;51.436;5.978;2024-01-27T00:35:52;35.19;33.22;37.48;;
66454;Laerm;75808;51.436;5.978;2024-01-27T00:36:02;35.40;32.47;37.58;;
66454;Laerm;75808;51.436;5.978;2024-01-27T00:36:13;34.59;32.61;38.57;;
66454;Laerm;75808;51.436;5.978;2024-01-27T00:36:23;35.85;32.14;44.94;;
66454;Laerm;75808;51.436;5.978;2024-01-27T00:36:33;34.77;32.99;38.54;;
66454;Laerm;75808;51.436;5.978;2024-01-27T00:36:46;34.97;32.70;38.07;;
66454;Laerm;75808;51.436;5.978;2024-01-27T00:36:58;42.72;33.60;51.13;;
66454;Laerm;75808;51.436;5.978;2024-01-27T00:37:09;34.52;32.73;39.31;;
66454;Laerm;75808;51.436;5.978;2024-01-27T00:37:19;35.06;32.59;40.02;;
66454;Laerm;75808;51.436;5.978;2024-01-27T00:37:29;35.03;31.94;44.35;;
66454;Laerm;75808;51.436;5.978;2024-01-27T00:37:40;34.75;32.24;41.03;;
66454;Laerm;75808;51.436;5.978;2024-01-27T00:37:50;37.67;33.52;41.27;;
66454;Laerm;75808;51.436;5.978;2024-01-27T00:38:00;41.83;37.17;48.40;;
66454;Laerm;75808;51.436;5.978;2024-01-27T00:38:11;50.11;44.75;55.99;;
66454;Laerm;75808;51.436;5.978;2024-01-27T00:38:21;45.90;43.06;49.87;;
66454;Laerm;75808;51.436;5.978;2024-01-27T00:38:31;46.09;43.50;48.49;;
66454;Laerm;75808;51.436;5.978;2024-01-27T00:38:41;49.94;45.45;55.95;;
66454;Laerm;75808;51.436;5.978;2024-01-27T00:38:51;75.92;55.11;82.28;;
66454;Laerm;75808;51.436;5.978;2024-01-27T00:39:02;75.76;71.84;80.62;;
66454;Laerm;75808;51.436;5.978;2024-01-27T00:39:13;68.19;43.75;77.87;;
66454;Laerm;75808;51.436;5.978;2024-01-27T00:39:23;41.27;36.08;49.16;;
66454;Laerm;75808;51.436;5.978;2024-01-27T00:39:33;52.27;36.44;61.86;;
66454;Laerm;75808;51.436;5.978;2024-01-27T00:39:44;44.81;38.14;52.22;;
66454;Laerm;75808;51.436;5.978;2024-01-27T00:39:55;41.42;37.39;45.78;;
66454;Laerm;75808;51.436;5.978;2024-01-27T00:40:07;37.26;33.64;40.88;;
66454;Laerm;75808;51.436;5.978;2024-01-27T00:40:18;36.20;32.90;40.74;;
66454;Laerm;75808;51.436;5.978;2024-01-27T00:40:28;34.65;32.99;36.84;;
66454;Laerm;75808;51.436;5.978;2024-01-27T00:40:38;34.05;32.28;36.05;;
66454;Laerm;75808;51.436;5.978;2024-01-27T00:40:48;34.83;32.44;37.15;;
66454;Laerm;75808;51.436;5.978;2024-01-27T00:40:59;33.94;32.00;36.06;;
66454;Laerm;75808;51.436;5.978;2024-01-27T00:41:09;35.34;31.97;41.40;;
66454;Laerm;75808;51.436;5.978;2024-01-27T00:41:22;35.82;33.45;38.84;;
66454;Laerm;75808;51.436;5.978;2024-01-27T00:41:33;42.02;34.80;46.31;;
66454;Laerm;75808;51.436;5.978;2024-01-27T00:41:43;35.35;31.80;41.93;;
66454;Laerm;75808;51.436;5.978;2024-01-27T00:41:53;45.86;32.16;56.89;;
66454;Laerm;75808;51.436;5.978;2024-01-27T00:42:05;33.04;31.60;34.88;;
66454;Laerm;75808;51.436;5.978;2024-01-27T00:42:15;33.06;31.62;35.04;;
66454;Laerm;75808;51.436;5.978;2024-01-27T00:42:26;33.31;31.46;35.85;;
66454;Laerm;75808;51.436;5.978;2024-01-27T00:42:36;33.18;31.17;39.15;;
66454;Laerm;75808;51.436;5.978;2024-01-27T00:42:47;32.82;31.35;34.62;;
66454;Laerm;75808;51.436;5.978;2024-01-27T00:42:57;32.63;31.07;35.13;;
66454;Laerm;75808;51.436;5.978;2024-01-27T00:43:08;32.52;30.75;34.90;;
66454;Laerm;75808;51.436;5.978;2024-01-27T00:43:19;33.39;31.23;38.07;;
66454;Laerm;75808;51.436;5.978;2024-01-27T00:43:29;33.86;31.70;38.28;;
66454;Laerm;75808;51.436;5.978;2024-01-27T00:43:39;33.92;31.95;36.40;;
66454;Laerm;75808;51.436;5.978;2024-01-27T00:43:49;33.35;31.44;35.73;;
66454;Laerm;75808;51.436;5.978;2024-01-27T00:44:00;33.42;31.43;35.62;;
66454;Laerm;75808;51.436;5.978;2024-01-27T00:44:10;32.88;31.52;36.49;;
66454;Laerm;75808;51.436;5.978;2024-01-27T00:44:20;33.45;31.80;36.22;;
66454;Laerm;75808;51.436;5.978;2024-01-27T00:44:30;33.82;31.58;36.57;;
66454;Laerm;75808;51.436;5.978;2024-01-27T00:44:41;34.35;32.40;36.43;;
66454;Laerm;75808;51.436;5.978;2024-01-27T00:44:51;33.95;32.21;36.05;;
66454;Laerm;75808;51.436;5.978;2024-01-27T00:45:01;33.16;31.52;34.96;;
66454;Laerm;75808;51.436;5.978;2024-01-27T00:45:11;33.00;31.22;35.51;;
66454;Laerm;75808;51.436;5.978;2024-01-27T00:45:21;32.99;31.28;35.08;;
66454;Laerm;75808;51.436;5.978;2024-01-27T00:45:37;34.43;32.09;40.02;;
66454;Laerm;75808;51.436;5.978;2024-01-27T00:45:47;34.31;32.40;38.03;;
66454;Laerm;75808;51.436;5.978;2024-01-27T00:45:57;32.98;31.52;34.67;;
66454;Laerm;75808;51.436;5.978;2024-01-27T00:46:08;32.38;30.85;33.65;;
66454;Laerm;75808;51.436;5.978;2024-01-27T00:46:18;32.28;30.94;34.46;;
66454;Laerm;75808;51.436;5.978;2024-01-27T00:46:28;32.32;31.22;34.01;;
66454;Laerm;75808;51.436;5.978;2024-01-27T00:46:38;32.71;31.15;34.06;;
66454;Laerm;75808;51.436;5.978;2024-01-27T00:46:49;32.63;31.54;34.07;;
66454;Laerm;75808;51.436;5.978;2024-01-27T00:46:59;33.12;31.42;34.68;;
66454;Laerm;75808;51.436;5.978;2024-01-27T00:47:09;34.04;31.95;37.44;;
66454;Laerm;75808;51.436;5.978;2024-01-27T00:47:19;40.28;33.68;45.65;;
66454;Laerm;75808;51.436;5.978;2024-01-27T00:47:29;34.24;32.32;37.65;;
66454;Laerm;75808;51.436;5.978;2024-01-27T00:47:40;32.52;31.22;34.17;;
66454;Laerm;75808;51.436;5.978;2024-01-27T00:47:50;32.35;30.75;34.12;;
66454;Laerm;75808;51.436;5.978;2024-01-27T00:48:00;32.38;30.83;33.41;;
66454;Laerm;75808;51.436;5.978;2024-01-27T00:48:11;32.40;30.94;33.83;;
66454;Laerm;75808;51.436;5.978;2024-01-27T00:48:21;32.67;31.43;34.01;;
66454;Laerm;75808;51.436;5.978;2024-01-27T00:48:32;32.63;31.18;34.04;;
66454;Laerm;75808;51.436;5.978;2024-01-27T00:48:42;32.67;31.14;33.96;;
66454;Laerm;75808;51.436;5.978;2024-01-27T00:48:52;33.43;31.66;35.18;;
66454;Laerm;75808;51.436;5.978;2024-01-27T00:49:03;34.34;32.86;35.84;;
66454;Laerm;75808;51.436;5.978;2024-01-27T00:49:13;34.60;33.20;36.09;;
66454;Laerm;75808;51.436;5.978;2024-01-27T00:49:23;34.69;33.14;36.47;;
66454;Laerm;75808;51.436;5.978;2024-01-27T00:49:33;34.78;33.32;36.35;;
66454;Laerm;75808;51.436;5.978;2024-01-27T00:49:43;34.66;32.98;36.22;;
66454;Laerm;75808;51.436;5.978;2024-01-27T00:49:54;34.88;33.46;36.51;;
66454;Laerm;75808;51.436;5.978;2024-01-27T00:50:04;35.05;32.70;38.90;;
66454;Laerm;75808;51.436;5.978;2024-01-27T00:50:16;33.81;32.27;35.40;;
66454;Laerm;75808;51.436;5.978;2024-01-27T00:50:26;34.45;32.62;36.12;;
66454;Laerm;75808;51.436;5.978;2024-01-27T00:50:36;35.39;32.48;38.74;;
66454;Laerm;75808;51.436;5.978;2024-01-27T00:50:46;35.45;32.65;38.63;;
66454;Laerm;75808;51.436;5.978;2024-01-27T00:50:57;35.21;33.78;38.48;;
66454;Laerm;75808;51.436;5.978;2024-01-27T00:51:07;38.82;34.71;44.13;;
66454;Laerm;75808;51.436;5.978;2024-01-27T00:51:18;39.16;36.44;42.74;;
66454;Laerm;75808;51.436;5.978;2024-01-27T00:51:28;41.37;37.32;47.50;;
66454;Laerm;75808;51.436;5.978;2024-01-27T00:51:38;47.40;41.60;52.91;;
66454;Laerm;75808;51.436;5.978;2024-01-27T00:51:49;41.47;34.10;48.74;;
66454;Laerm;75808;51.436;5.978;2024-01-27T00:52:00;37.61;34.47;41.41;;
66454;Laerm;75808;51.436;5.978;2024-01-27T00:52:10;35.00;33.27;37.57;;
66454;Laerm;75808;51.436;5.978;2024-01-27T00:52:20;34.53;32.59;37.00;;
66454;Laerm;75808;51.436;5.978;2024-01-27T00:52:30;34.66;33.12;36.15;;
66454;Laerm;75808;51.436;5.978;2024-01-27T00:52:41;34.01;31.91;35.79;;
66454;Laerm;75808;51.436;5.978;2024-01-27T00:52:51;33.63;31.88;35.15;;
66454;Laerm;75808;51.436;5.978;2024-01-27T00:53:01;33.49;32.10;34.78;;
66454;Laerm;75808;51.436;5.978;2024-01-27T00:53:12;32.90;31.56;34.60;;
66454;Laerm;75808;51.436;5.978;2024-01-27T00:53:22;32.63;31.37;33.78;;
66454;Laerm;75808;51.436;5.978;2024-01-27T00:53:33;32.71;31.53;34.07;;
66454;Laerm;75808;51.436;5.978;2024-01-27T00:53:44;32.87;31.60;34.88;;
66454;Laerm;75808;51.436;5.978;2024-01-27T00:53:54;32.81;31.59;38.42;;
66454;Laerm;75808;51.436;5.978;2024-01-27T00:54:04;32.58;31.38;33.55;;
66454;Laerm;75808;51.436;5.978;2024-01-27T00:54:14;32.41;30.83;34.07;;
66454;Laerm;75808;51.436;5.978;2024-01-27T00:54:25;32.13;30.83;34.27;;
66454;Laerm;75808;51.436;5.978;2024-01-27T00:54:35;31.95;30.62;33.91;;
66454;Laerm;75808;51.436;5.978;2024-01-27T00:54:45;32.00;30.80;32.99;;
66454;Laerm;75808;51.436;5.978;2024-01-27T00:54:55;32.18;30.90;33.38;;
66454;Laerm;75808;51.436;5.978;2024-01-27T00:55:06;33.29;31.65;34.97;;
66454;Laerm;75808;51.436;5.978;2024-01-27T00:55:16;32.79;31.14;34.27;;
66454;Laerm;75808;51.436;5.978;2024-01-27T00:55:27;32.29;30.92;33.53;;
66454;Laerm;75808;51.436;5.978;2024-01-27T00:55:37;32.26;30.50;33.51;;
66454;Laerm;75808;51.436;5.978;2024-01-27T00:55:47;32.25;30.88;34.30;;
66454;Laerm;75808;51.436;5.978;2024-01-27T00:55:58;32.38;30.93;34.20;;
66454;Laerm;75808;51.436;5.978;2024-01-27T00:56:08;32.70;31.25;34.12;;
66454;Laerm;75808;51.436;5.978;2024-01-27T00:56:18;32.86;31.55;34.46;;
66454;Laerm;75808;51.436;5.978;2024-01-27T00:56:28;33.06;31.51;36.01;;
66454;Laerm;75808;51.436;5.978;2024-01-27T00:56:39;33.12;31.11;35.83;;
66454;Laerm;75808;51.436;5.978;2024-01-27T00:56:49;33.98;32.57;35.92;;
66454;Laerm;75808;51.436;5.978;2024-01-27T00:56:59;34.60;32.32;37.67;;
66454;Laerm;75808;51.436;5.978;2024-01-27T00:57:09;33.17;31.43;35.85;;
66454;Laerm;75808;51.436;5.978;2024-01-27T00:57:19;32.96;31.49;34.54;;
66454;Laerm;75808;51.436;5.978;2024-01-27T00:57:30;33.76;31.93;36.43;;
66454;Laerm;75808;51.436;5.978;2024-01-27T00:57:40;33.93;31.74;36.14;;
66454;Laerm;75808;51.436;5.978;2024-01-27T00:57:50;32.63;31.22;34.08;;
66454;Laerm;75808;51.436;5.978;2024-01-27T00:58:00;33.04;31.65;36.66;;
66454;Laerm;75808;51.436;5.978;2024-01-27T00:58:11;33.69;31.16;36.47;;
66454;Laerm;75808;51.436;5.978;2024-01-27T00:58:21;32.95;31.41;34.35;;